CheckWX is a tool to help pilots better visualize weather data.  It is not intended as a substitute for an official pre-flight weather briefing.

21:27:22 UTC

KSAT METAR
San Antonio International Airport
San Antonio, Texas, USA
Current

36 mins ago

KSAT 022051Z 14013G22KT 10SM FEW150 FEW250 37/19 A2995 RMK AO2 SLP122 T03670189 56013
Observed
Jul-2 @ 20:51 UTC
Wind
  • 140° at 13 KTS
  • Gusting to 22 KTS
Visibility
10 SM
Flight Rules
VFR
Cloud Levels
  • Few at 15,000' AGL
  • Few at 25,000' AGL
Temperature
37°C / 99°F
Dewpoint
19°C / 66°F
Humidity
35%
Altimeter
29.95" Hg
Pressure
1014.22 hPa
Previous

2 hours ago

KSAT 021951Z 14011KT 10SM FEW150 FEW250 36/19 A2996 RMK AO2 SLP124 T03610189
Observed
Jul-2 @ 19:51 UTC
Wind
  • 140° at 11 KTS
Visibility
10 SM
Flight Rules
VFR
Cloud Levels
  • Few at 15,000' AGL
  • Few at 25,000' AGL
Temperature
36°C / 97°F
Dewpoint
19°C / 66°F
Humidity
37%
Altimeter
29.96" Hg
Pressure
1014.52 hPa
Previous

3 hours ago

KSAT 021851Z 18006G18KT 10SM FEW150 FEW250 35/19 A2998 RMK AO2 SLP130 T03500189
Observed
Jul-2 @ 18:51 UTC
Wind
  • 180° at 6 KTS
  • Gusting to 18 KTS
Visibility
10 SM
Flight Rules
VFR
Cloud Levels
  • Few at 15,000' AGL
  • Few at 25,000' AGL
Temperature
35°C / 95°F
Dewpoint
19°C / 66°F
Humidity
39%
Altimeter
29.98" Hg
Pressure
1015.22 hPa